Terminal Aerodrome Forecast
Issued by NWS North Platte, NE

Home | Current Version | Previous Version | Graphics & Text | Print | Product List | Glossary On
Versions: 1 2 3 4 5 6 7 8 9 10 11 12 13 14 15 16 17 18 19
907
FTUS43 KLBF 141727
TAFVTN
TAF
KVTN 141727Z 1418/1518 29012G18KT P6SM VCSH SCT050 OVC060
     FM142000 31013G19KT P6SM -RA OVC045
     FM142100 32013G19KT 5SM -RASN OVC020
     FM142200 33013G19KT 2SM -SN OVC015
     FM150100 35014G21KT P6SM VCSH OVC030
     FM150500 35015G23KT P6SM BKN060=

USA.gov is the U.S. government's official web portal to all federal, state and local government web resources and services.